createdAt,value
2023-03-05T00:01:33.624Z,101952.91
2023-03-05T00:04:10.231Z,101946.16
2023-03-05T00:06:42.431Z,101943.63
2023-03-05T00:09:14.783Z,101942.00
2023-03-05T00:11:46.784Z,101932.47
2023-03-05T00:14:18.841Z,101934.28
2023-03-05T00:16:50.787Z,101929.13
2023-03-05T00:19:22.846Z,101926.66
2023-03-05T00:21:54.830Z,101931.00
2023-03-05T00:24:26.925Z,101927.81
2023-03-05T00:26:58.897Z,101922.75
2023-03-05T00:29:31.710Z,101927.22
2023-03-05T00:32:04.036Z,101917.66
2023-03-05T00:34:37.408Z,101925.47
2023-03-05T00:37:09.732Z,101919.53
2023-03-05T00:39:41.683Z,101910.22
2023-03-05T00:42:13.683Z,101924.00
2023-03-05T00:44:45.752Z,101913.31
2023-03-05T00:47:18.587Z,101919.41
2023-03-05T00:49:50.637Z,101911.00
2023-03-05T00:52:22.812Z,101910.34
2023-03-05T00:54:54.781Z,101915.47
2023-03-05T00:57:26.734Z,101905.34
2023-03-05T00:59:58.755Z,101891.06
2023-03-05T01:02:32.626Z,101894.88
2023-03-05T01:05:06.580Z,101902.25
2023-03-05T01:07:38.544Z,101893.47
2023-03-05T01:10:11.893Z,101900.91
2023-03-05T01:12:43.845Z,101888.59
2023-03-05T01:15:16.150Z,101882.63
2023-03-05T01:17:48.121Z,101883.66
2023-03-05T01:20:22.531Z,101886.19
2023-03-05T01:22:54.731Z,101874.16
2023-03-05T01:25:26.856Z,101875.78
2023-03-05T01:27:58.861Z,101882.06
2023-03-05T01:30:30.881Z,101881.13
2023-03-05T01:33:03.686Z,101880.97
2023-03-05T01:35:35.764Z,101880.19
2023-03-05T01:38:07.873Z,101865.50
2023-03-05T01:40:39.973Z,101865.44
2023-03-05T01:43:12.062Z,101856.91
2023-03-05T01:46:26.889Z,101856.22
2023-03-05T01:49:25.460Z,101851.31
2023-03-05T01:52:04.941Z,101844.09
2023-03-05T01:54:51.946Z,101837.75
2023-03-05T01:57:34.331Z,101831.69
2023-03-05T02:00:34.616Z,101829.13
2023-03-05T02:03:08.369Z,101832.34
2023-03-05T02:05:43.354Z,101841.75
2023-03-05T02:08:19.973Z,101828.94
2023-03-05T02:10:56.539Z,101825.31
2023-03-05T02:13:33.525Z,101818.44
2023-03-05T02:16:05.981Z,101821.91
2023-03-05T02:18:37.917Z,101821.78
2023-03-05T02:21:11.430Z,101815.00
2023-03-05T02:23:43.508Z,101809.84
2023-03-05T02:26:15.490Z,101809.03
2023-03-05T02:28:54.607Z,101796.16
2023-03-05T02:31:27.258Z,101797.09
2023-03-05T02:33:59.419Z,101791.91
2023-03-05T02:36:31.749Z,101780.19
2023-03-05T02:39:04.430Z,101782.00
2023-03-05T02:41:36.529Z,101774.09
2023-03-05T02:44:08.820Z,101775.44
2023-03-05T02:46:40.790Z,101774.75
2023-03-05T02:49:12.809Z,101768.75
2023-03-05T02:51:44.797Z,101772.22
2023-03-05T02:54:16.790Z,101768.09
2023-03-05T02:56:48.935Z,101767.09
2023-03-05T02:59:20.966Z,101760.88
2023-03-05T03:01:52.923Z,101757.56
2023-03-05T03:04:24.936Z,101753.16
2023-03-05T03:06:56.924Z,101756.63
2023-03-05T03:09:29.029Z,101754.16
2023-03-05T03:12:01.417Z,101751.47
2023-03-05T03:14:39.869Z,101743.59
2023-03-05T03:17:15.696Z,101748.88
2023-03-05T03:19:48.186Z,101742.66
2023-03-05T03:22:20.300Z,101742.66
2023-03-05T03:24:52.260Z,101733.31
2023-03-05T03:27:24.698Z,101732.25
2023-03-05T03:29:56.685Z,101726.25
2023-03-05T03:32:29.691Z,101728.03
2023-03-05T03:35:03.225Z,101718.28
2023-03-05T03:37:35.196Z,101722.72
2023-03-05T03:40:11.637Z,101715.84
2023-03-05T03:42:46.582Z,101706.66
2023-03-05T03:45:18.656Z,101717.22
2023-03-05T03:47:51.530Z,101718.16
2023-03-05T03:50:25.141Z,101704.56
2023-03-05T03:52:57.172Z,101714.69
2023-03-05T03:55:29.229Z,101714.69
2023-03-05T03:58:01.423Z,101720.38
2023-03-05T04:00:36.426Z,101706.44
2023-03-05T04:03:09.259Z,101700.94
2023-03-05T04:05:41.541Z,101694.56
2023-03-05T04:08:13.530Z,101691.66
2023-03-05T04:10:45.539Z,101691.63
2023-03-05T04:13:17.475Z,101691.78
2023-03-05T04:15:50.459Z,101697.88
2023-03-05T04:18:23.133Z,101684.63
2023-03-05T04:20:55.213Z,101684.63
2023-03-05T04:23:27.233Z,101682.97
2023-03-05T04:25:59.277Z,101683.09
2023-03-05T04:28:31.826Z,101675.38
2023-03-05T04:31:04.738Z,101671.97
2023-03-05T04:33:36.736Z,101673.41
2023-03-05T04:36:09.185Z,101671.53
2023-03-05T04:38:41.223Z,101664.56
2023-03-05T04:41:13.180Z,101662.72
2023-03-05T04:43:45.169Z,101661.84
2023-03-05T04:46:17.179Z,101660.22
2023-03-05T04:48:49.375Z,101662.19
2023-03-05T04:51:21.386Z,101664.78
2023-03-05T04:53:53.428Z,101664.66
2023-03-05T04:56:25.432Z,101656.13
2023-03-05T04:58:57.474Z,101655.19
2023-03-05T05:01:29.601Z,101654.44
2023-03-05T05:04:02.215Z,101649.25
2023-03-05T05:06:34.286Z,101646.84
2023-03-05T05:09:06.313Z,101645.13
2023-03-05T05:11:38.297Z,101643.75
2023-03-05T05:14:10.253Z,101638.63
2023-03-05T05:16:42.341Z,101635.97
2023-03-05T05:19:14.391Z,101638.69
2023-03-05T05:21:46.836Z,101635.09
2023-03-05T05:24:18.772Z,101636.09
2023-03-05T05:26:51.372Z,101632.84
2023-03-05T05:29:23.756Z,101636.97
2023-03-05T05:31:56.529Z,101641.84
2023-03-05T05:34:28.709Z,101634.13
2023-03-05T05:37:00.700Z,101640.19
2023-03-05T05:39:38.607Z,101637.59
2023-03-05T05:42:10.632Z,101627.97
2023-03-05T05:44:42.616Z,101631.38
2023-03-05T05:47:17.020Z,101634.69
2023-03-05T05:49:48.965Z,101627.69
2023-03-05T05:52:21.149Z,101620.06
2023-03-05T05:54:53.083Z,101619.63
2023-03-05T05:57:25.229Z,101622.88
2023-03-05T05:59:57.288Z,101621.81
2023-03-05T06:02:29.268Z,101625.06
2023-03-05T06:05:01.221Z,101625.72
2023-03-05T06:07:35.653Z,101626.47
2023-03-05T06:10:10.015Z,101617.69
2023-03-05T06:12:42.084Z,101628.06
2023-03-05T06:15:16.804Z,101617.69
2023-03-05T06:17:48.801Z,101621.22
2023-03-05T06:20:21.198Z,101617.84
2023-03-05T06:22:53.255Z,101621.25
2023-03-05T06:25:25.228Z,101623.13
2023-03-05T06:27:57.238Z,101625.72
2023-03-05T06:30:29.275Z,101626.09
2023-03-05T06:33:01.307Z,101626.50
2023-03-05T06:35:34.108Z,101626.81
2023-03-05T06:38:07.767Z,101630.44
2023-03-05T06:40:40.001Z,101646.19
2023-03-05T06:43:12.491Z,101637.78
2023-03-05T06:45:44.687Z,101648.91
2023-03-05T06:48:16.683Z,101647.81
2023-03-05T06:50:48.685Z,101642.38
2023-03-05T06:53:20.687Z,101635.25
2023-03-05T06:55:53.754Z,101636.19
2023-03-05T06:58:25.829Z,101630.00
2023-03-05T07:00:57.815Z,101637.78
2023-03-05T07:03:29.881Z,101631.50
2023-03-05T07:06:14.418Z,101636.72
2023-03-05T07:08:46.636Z,101629.31
2023-03-05T07:11:21.461Z,101634.84
2023-03-05T07:13:53.481Z,101630.63
2023-03-05T07:16:32.105Z,101629.94
2023-03-05T07:19:07.492Z,101630.91
2023-03-05T07:21:40.133Z,101623.38
2023-03-05T07:24:13.492Z,101626.72
2023-03-05T07:26:46.933Z,101628.59
2023-03-05T07:29:19.924Z,101629.97
2023-03-05T07:31:52.393Z,101625.97
2023-03-05T07:34:27.081Z,101621.78
2023-03-05T07:37:00.363Z,101629.53
2023-03-05T07:39:32.452Z,101630.56
2023-03-05T07:42:04.659Z,101623.75
2023-03-05T07:44:37.009Z,101628.19
2023-03-05T07:47:08.952Z,101627.09
2023-03-05T07:49:41.859Z,101629.69
2023-03-05T07:52:13.789Z,101624.56
2023-03-05T07:54:45.941Z,101621.94
2023-03-05T07:57:17.987Z,101611.94
2023-03-05T07:59:50.010Z,101610.69
2023-03-05T08:02:22.480Z,101607.69
2023-03-05T08:04:54.524Z,101610.66
2023-03-05T08:07:26.610Z,101606.31
2023-03-05T08:09:58.670Z,101613.13
2023-03-05T08:12:30.697Z,101608.25
2023-03-05T08:15:02.753Z,101605.34
2023-03-05T08:17:34.802Z,101600.59
2023-03-05T08:20:11.321Z,101600.97
2023-03-05T08:22:43.388Z,101597.78
2023-03-05T08:25:15.862Z,101597.78
2023-03-05T08:27:48.860Z,101585.78
2023-03-05T08:30:22.472Z,101598.75
2023-03-05T08:32:54.897Z,101583.22
2023-03-05T08:35:29.784Z,101591.25
2023-03-05T08:38:01.783Z,101594.47
2023-03-05T08:40:34.228Z,101583.28
2023-03-05T08:43:07.379Z,101589.13
2023-03-05T08:45:40.253Z,101582.69
2023-03-05T08:48:12.255Z,101580.25
2023-03-05T08:50:44.318Z,101575.28
2023-03-05T08:53:16.298Z,101572.88
2023-03-05T08:55:56.261Z,101571.63
2023-03-05T08:58:28.351Z,101566.44
2023-03-05T09:01:00.462Z,101563.09
2023-03-05T09:03:33.309Z,101571.63
2023-03-05T09:06:09.500Z,101560.31
2023-03-05T09:08:41.958Z,101565.75
2023-03-05T09:11:17.227Z,101565.78
2023-03-05T09:13:49.532Z,101561.34
2023-03-05T09:16:21.807Z,101561.63
2023-03-05T09:18:53.936Z,101559.63
2023-03-05T09:21:26.609Z,101555.31
2023-03-05T09:24:00.627Z,101551.25
2023-03-05T09:26:32.772Z,101556.56
2023-03-05T09:29:06.912Z,101552.31
2023-03-05T09:31:39.159Z,101545.81
2023-03-05T09:34:12.210Z,101549.94
2023-03-05T09:36:44.675Z,101545.88
2023-03-05T09:39:17.122Z,101544.97
2023-03-05T09:42:30.386Z,101539.78
2023-03-05T09:45:40.447Z,101546.38
2023-03-05T09:48:18.306Z,101543.44
2023-03-05T09:51:01.126Z,101538.59
2023-03-05T09:54:02.294Z,101539.38
2023-03-05T09:56:46.102Z,101542.34
2023-03-05T09:59:42.388Z,101534.66
2023-03-05T10:02:27.573Z,101542.69
2023-03-05T10:05:25.364Z,101537.53
2023-03-05T10:08:04.133Z,101531.34
2023-03-05T10:10:50.607Z,101535.31
2023-03-05T10:13:32.638Z,101535.25
2023-03-05T10:16:38.597Z,101532.00
2023-03-05T10:19:29.600Z,101530.50
2023-03-05T10:22:25.343Z,101522.41
2023-03-05T10:25:57.248Z,101517.34
2023-03-05T10:28:46.888Z,101512.97
2023-03-05T10:31:52.125Z,101510.34
2023-03-05T10:34:28.167Z,101506.56
2023-03-05T10:37:27.924Z,101509.66
2023-03-05T10:40:13.056Z,101492.25
2023-03-05T10:43:13.433Z,101504.84
2023-03-05T10:45:48.047Z,101499.88
2023-03-05T10:48:35.958Z,101496.44
2023-03-05T10:51:21.867Z,101495.72
2023-03-05T10:54:20.424Z,101502.22
2023-03-05T10:57:18.091Z,101506.53
2023-03-05T10:59:58.020Z,101509.38
2023-03-05T11:02:30.078Z,101500.75
2023-03-05T11:05:03.625Z,101504.63
2023-03-05T11:07:38.860Z,101492.63
2023-03-05T11:10:21.600Z,101494.06
2023-03-05T11:12:54.518Z,101487.72
2023-03-05T11:15:30.050Z,101476.16
2023-03-05T11:18:21.482Z,101472.81
2023-03-05T11:21:12.637Z,101472.94
2023-03-05T11:23:44.701Z,101467.59
2023-03-05T11:26:23.299Z,101472.38
2023-03-05T11:28:58.236Z,101473.66
2023-03-05T11:31:32.893Z,101462.66
2023-03-05T11:34:17.205Z,101470.72
2023-03-05T11:36:54.572Z,101464.69
2023-03-05T11:39:27.466Z,101459.81
2023-03-05T11:42:14.104Z,101452.66
2023-03-05T11:44:54.922Z,101456.59
2023-03-05T11:47:52.825Z,101445.91
2023-03-05T11:50:31.590Z,101437.66
2023-03-05T11:53:39.422Z,101430.03
2023-03-05T11:56:46.244Z,101430.22
2023-03-05T11:59:25.366Z,101431.03
2023-03-05T12:01:58.713Z,101420.13
2023-03-05T12:04:32.903Z,101417.94
2023-03-05T12:07:05.005Z,101411.28
2023-03-05T12:09:43.565Z,101408.81
2023-03-05T12:12:49.469Z,101403.72
2023-03-05T12:15:52.360Z,101397.81
2023-03-05T12:19:21.214Z,101379.19
2023-03-05T12:21:53.812Z,101383.75
2023-03-05T12:24:28.117Z,101370.78
2023-03-05T12:27:03.183Z,101372.16
2023-03-05T12:29:52.373Z,101365.91
2023-03-05T12:32:31.669Z,101352.44
2023-03-05T12:35:32.670Z,101350.06
2023-03-05T12:38:38.228Z,101339.91
2023-03-05T12:41:22.664Z,101341.91
2023-03-05T12:44:06.971Z,101343.13
2023-03-05T12:46:42.656Z,101334.53
2023-03-05T12:49:21.325Z,101328.19
2023-03-05T12:51:56.995Z,101329.13
2023-03-05T12:54:36.052Z,101319.59
2023-03-05T12:57:26.543Z,101316.31
2023-03-05T13:00:11.092Z,101307.19
2023-03-05T13:02:46.698Z,101302.38
2023-03-05T13:05:34.464Z,101301.91
2023-03-05T13:08:22.348Z,101297.59
2023-03-05T13:11:07.277Z,101292.41
2023-03-05T13:13:45.197Z,101287.13
2023-03-05T13:16:37.258Z,101274.78
2023-03-05T13:19:17.473Z,101272.94
2023-03-05T13:22:03.057Z,101277.47
2023-03-05T13:24:34.995Z,101274.88
2023-03-05T13:27:31.039Z,101266.03
2023-03-05T13:30:03.218Z,101265.03
2023-03-05T13:32:35.590Z,101269.06
2023-03-05T13:35:13.445Z,101285.22
2023-03-05T13:37:45.506Z,101266.41
2023-03-05T13:40:23.450Z,101259.19
2023-03-05T13:42:56.951Z,101266.72
2023-03-05T13:45:31.274Z,101263.69
2023-03-05T13:48:07.085Z,101256.25
2023-03-05T13:50:40.806Z,101261.66
2023-03-05T13:53:23.784Z,101255.53
2023-03-05T13:56:04.543Z,101250.16
2023-03-05T13:59:01.503Z,101249.94
2023-03-05T14:01:42.401Z,101257.56
2023-03-05T14:04:14.286Z,101266.44
2023-03-05T14:07:20.983Z,101258.44
2023-03-05T14:09:54.082Z,101255.13
2023-03-05T14:12:35.596Z,101249.41
2023-03-05T14:15:37.534Z,101231.72
2023-03-05T14:18:12.528Z,101230.41
2023-03-05T14:21:06.924Z,101222.13
2023-03-05T14:23:41.768Z,101213.81
2023-03-05T14:26:44.306Z,101209.69
2023-03-05T14:29:19.727Z,101199.47
2023-03-05T14:32:08.161Z,101193.56
2023-03-05T14:34:42.266Z,101193.56
2023-03-05T14:37:25.672Z,101189.97
2023-03-05T14:40:10.073Z,101192.28
2023-03-05T14:43:01.582Z,101183.47
2023-03-05T14:45:44.311Z,101184.97
2023-03-05T14:48:19.098Z,101174.44
2023-03-05T14:50:57.055Z,101174.13
2023-03-05T14:53:41.070Z,101180.66
2023-03-05T14:56:23.498Z,101191.31
2023-03-05T14:58:57.569Z,101180.97
2023-03-05T15:01:29.740Z,101196.03
2023-03-05T15:04:01.811Z,101195.94
2023-03-05T15:06:38.189Z,101187.53
2023-03-05T15:09:12.516Z,101178.94
2023-03-05T15:11:45.185Z,101178.25
2023-03-05T15:14:17.188Z,101166.66
2023-03-05T15:16:49.242Z,101161.28
2023-03-05T15:19:21.343Z,101157.25
2023-03-05T15:21:53.455Z,101155.69
2023-03-05T15:24:25.406Z,101150.66
2023-03-05T15:26:57.405Z,101150.75
2023-03-05T15:29:29.486Z,101143.91
2023-03-05T15:32:02.566Z,101142.31
2023-03-05T15:34:35.250Z,101138.97
2023-03-05T15:37:07.422Z,101143.50
2023-03-05T15:39:39.466Z,101142.88
2023-03-05T15:42:11.612Z,101145.44
2023-03-05T15:44:43.690Z,101130.72
2023-03-05T15:47:15.781Z,101133.66
2023-03-05T15:49:47.845Z,101128.25
2023-03-05T15:52:19.868Z,101120.59
2023-03-05T15:54:52.077Z,101125.75
2023-03-05T15:57:24.431Z,101113.56
2023-03-05T15:59:56.524Z,101109.84
2023-03-05T16:02:28.528Z,101115.22
2023-03-05T16:05:00.713Z,101112.78
2023-03-05T16:07:37.471Z,101106.72
2023-03-05T16:10:17.797Z,101108.19
2023-03-05T16:12:52.512Z,101103.84
2023-03-05T16:15:25.141Z,101114.28
2023-03-05T16:17:59.593Z,101098.78
2023-03-05T16:20:31.755Z,101094.66
2023-03-05T16:23:05.809Z,101090.94
2023-03-05T16:25:38.171Z,101092.72
2023-03-05T16:28:10.703Z,101085.75
2023-03-05T16:30:43.651Z,101085.03
2023-03-05T16:33:15.755Z,101082.38
2023-03-05T16:35:48.429Z,101078.06
2023-03-05T16:38:20.462Z,101077.97
2023-03-05T16:41:07.439Z,101074.47
2023-03-05T16:43:40.422Z,101071.94
2023-03-05T16:46:14.747Z,101071.19
2023-03-05T16:48:46.822Z,101070.34
2023-03-05T16:51:20.817Z,101070.28
2023-03-05T16:53:54.201Z,101071.84
2023-03-05T16:56:27.543Z,101058.13
2023-03-05T16:58:59.882Z,101068.53
2023-03-05T17:01:32.366Z,101060.66
2023-03-05T17:04:04.622Z,101062.41
2023-03-05T17:06:36.830Z,101052.78
2023-03-05T17:09:11.176Z,101051.97
2023-03-05T17:11:43.159Z,101052.81
2023-03-05T17:14:15.177Z,101055.34
2023-03-05T17:16:47.295Z,101050.88
2023-03-05T17:19:19.581Z,101044.72
2023-03-05T17:21:52.434Z,101042.06
2023-03-05T17:24:24.550Z,101045.47
2023-03-05T17:26:57.223Z,101036.94
2023-03-05T17:29:30.714Z,101026.44
2023-03-05T17:32:02.774Z,101029.94
2023-03-05T17:34:36.945Z,101026.50
2023-03-05T17:37:11.846Z,101022.97
2023-03-05T17:39:43.951Z,101022.91
2023-03-05T17:42:16.767Z,101025.44
2023-03-05T17:44:50.363Z,101029.03
2023-03-05T17:47:23.341Z,101013.50
2023-03-05T17:49:55.331Z,101015.09
2023-03-05T17:52:27.474Z,101016.81
2023-03-05T17:54:59.742Z,101021.16
2023-03-05T17:57:32.180Z,101014.22
2023-03-05T18:00:19.529Z,101018.53
2023-03-05T18:02:52.839Z,101014.22
2023-03-05T18:05:25.994Z,101009.78
2023-03-05T18:08:00.328Z,101007.06
2023-03-05T18:10:32.886Z,101006.28
2023-03-05T18:13:05.459Z,101005.47
2023-03-05T18:15:40.670Z,100994.38
2023-03-05T18:18:13.644Z,100996.19
2023-03-05T18:20:47.597Z,100996.19
2023-03-05T18:23:19.676Z,100989.28
2023-03-05T18:25:51.754Z,100992.72
2023-03-05T18:28:25.970Z,100999.59
2023-03-05T18:30:57.981Z,100996.34
2023-03-05T18:33:30.257Z,100986.84
2023-03-05T18:36:02.860Z,100991.97
2023-03-05T18:38:35.305Z,100981.63
2023-03-05T18:41:08.185Z,100966.84
2023-03-05T18:43:41.426Z,100972.81
2023-03-05T18:46:13.489Z,100973.75
2023-03-05T18:48:47.841Z,100960.78
2023-03-05T18:51:22.006Z,100956.41
2023-03-05T18:53:55.165Z,100964.91
2023-03-05T18:56:27.531Z,100961.56
2023-03-05T18:58:59.480Z,100965.69
2023-03-05T19:01:31.684Z,100964.81
2023-03-05T19:04:03.916Z,100966.63
2023-03-05T19:06:36.559Z,100947.59
2023-03-05T19:09:19.396Z,100952.06
2023-03-05T19:11:51.439Z,100960.56
2023-03-05T19:14:23.889Z,100945.91
2023-03-05T19:16:55.921Z,100943.28
2023-03-05T19:19:28.051Z,100942.34
2023-03-05T19:22:00.711Z,100934.50
2023-03-05T19:24:33.374Z,100938.72
2023-03-05T19:27:13.554Z,100934.47
2023-03-05T19:29:45.788Z,100930.16
2023-03-05T19:32:18.709Z,100928.50
2023-03-05T19:34:55.310Z,100923.47
2023-03-05T19:37:27.690Z,100918.16
2023-03-05T19:39:59.726Z,100912.06
2023-03-05T19:42:31.834Z,100912.00
2023-03-05T19:45:04.283Z,100898.97
2023-03-05T19:47:36.593Z,100907.41
2023-03-05T19:50:09.272Z,100904.13
2023-03-05T19:52:41.253Z,100910.34
2023-03-05T19:55:13.346Z,100897.28
2023-03-05T19:57:46.539Z,100893.06
2023-03-05T20:00:19.551Z,100891.47
2023-03-05T20:02:51.636Z,100890.59
2023-03-05T20:05:25.688Z,100883.59
2023-03-05T20:07:57.899Z,100881.78
2023-03-05T20:10:30.053Z,100880.78
2023-03-05T20:13:02.674Z,100879.25
2023-03-05T20:15:35.017Z,100873.22
2023-03-05T20:18:09.628Z,100875.97
2023-03-05T20:20:41.868Z,100876.81
2023-03-05T20:23:13.857Z,100867.09
2023-03-05T20:25:45.834Z,100869.78
2023-03-05T20:28:19.182Z,100867.25
2023-03-05T20:30:57.327Z,100857.84
2023-03-05T20:33:29.838Z,100863.00
2023-03-05T20:36:01.855Z,100861.38
2023-03-05T20:38:33.900Z,100856.94
2023-03-05T20:41:09.693Z,100852.59
2023-03-05T20:43:49.000Z,100860.44
2023-03-05T20:46:27.877Z,100857.03
2023-03-05T20:49:02.554Z,100849.94
2023-03-05T20:51:37.960Z,100845.84
2023-03-05T20:54:13.131Z,100847.44
2023-03-05T20:56:45.103Z,100839.56
2023-03-05T20:59:17.659Z,100836.06
2023-03-05T21:01:49.709Z,100836.94
2023-03-05T21:04:21.890Z,100835.91
2023-03-05T21:06:54.285Z,100835.84
2023-03-05T21:09:28.857Z,100830.50
2023-03-05T21:12:01.251Z,100818.63
2023-03-05T21:14:37.675Z,100814.38
2023-03-05T21:17:10.038Z,100809.19
2023-03-05T21:19:42.033Z,100818.56
2023-03-05T21:22:14.076Z,100801.34
2023-03-05T21:25:04.836Z,100802.34
2023-03-05T21:27:36.950Z,100804.75
2023-03-05T21:30:10.965Z,100801.44
2023-03-05T21:32:43.035Z,100806.69
2023-03-05T21:35:21.939Z,100795.38
2023-03-05T21:37:54.143Z,100799.81
2023-03-05T21:40:26.557Z,100792.13
2023-03-05T21:42:58.804Z,100786.00
2023-03-05T21:45:31.682Z,100781.72
2023-03-05T21:48:04.116Z,100777.44
2023-03-05T21:50:39.439Z,100781.81
2023-03-05T21:53:13.003Z,100772.00
2023-03-05T21:56:02.865Z,100766.03
2023-03-05T21:58:35.410Z,100769.47
2023-03-05T22:01:07.464Z,100754.88
2023-03-05T22:03:39.803Z,100758.38
2023-03-05T22:06:14.448Z,100753.06
2023-03-05T22:08:47.254Z,100759.19
2023-03-05T22:11:21.046Z,100755.03
2023-03-05T22:13:53.249Z,100755.03
2023-03-05T22:16:27.480Z,100753.28
2023-03-05T22:18:59.761Z,100751.59
2023-03-05T22:21:32.434Z,100749.19
2023-03-05T22:24:04.722Z,100746.66
2023-03-05T22:26:40.328Z,100748.38
2023-03-05T22:29:13.129Z,100748.34
2023-03-05T22:31:45.750Z,100743.97
2023-03-05T22:34:17.723Z,100738.81
2023-03-05T22:36:49.678Z,100740.63
2023-03-05T22:39:21.963Z,100735.44
2023-03-05T22:41:53.997Z,100728.50
2023-03-05T22:44:26.014Z,100725.88
2023-03-05T22:46:58.088Z,100738.84
2023-03-05T22:49:30.086Z,100734.41
2023-03-05T22:52:02.104Z,100735.09
2023-03-05T22:54:34.173Z,100725.47
2023-03-05T22:57:06.309Z,100731.38
2023-03-05T22:59:38.570Z,100741.66
2023-03-05T23:02:11.005Z,100732.03
2023-03-05T23:04:53.184Z,100726.78
2023-03-05T23:07:32.815Z,100741.44
2023-03-05T23:10:14.036Z,100732.69
2023-03-05T23:12:50.473Z,100732.81
2023-03-05T23:15:29.812Z,100742.16
2023-03-05T23:18:03.258Z,100736.94
2023-03-05T23:20:37.603Z,100740.19
2023-03-05T23:23:09.634Z,100745.03
2023-03-05T23:25:41.649Z,100742.13
2023-03-05T23:28:13.632Z,100739.28
2023-03-05T23:30:46.195Z,100750.19
2023-03-05T23:33:21.957Z,100748.78
2023-03-05T23:36:01.100Z,100748.63
2023-03-05T23:38:33.723Z,100749.25
2023-03-05T23:41:09.560Z,100752.38
2023-03-05T23:43:41.503Z,100756.22
2023-03-05T23:46:13.595Z,100746.53
2023-03-05T23:48:45.643Z,100747.44
2023-03-05T23:51:17.804Z,100752.63
2023-03-05T23:53:49.893Z,100754.00
2023-03-05T23:56:21.864Z,100750.28
2023-03-05T23:58:56.212Z,100744.28
